Time;durP1;ratioP1;P1;durP2;ratioP2;P2;SDS_P1;SDS_P2;PMS_P1;PMS_P2;Temp;Humidity;BMP_temperature;BMP_pressure;BME280_temperature;BME280_humidity;BME280_pressure;Samples;Min_cycle;Max_cycle;Signal;HPM_P1;HPM_P2
2023/06/13 00:01:26;;;;;;;8.85;3.45;;;18.70;87.50;;;;;;4949640;29;20110;-53
2023/06/13 00:03:53;;;;;;;5.63;3.78;;;18.60;87.20;;;;;;4931869;29;20051;-55
2023/06/13 00:06:19;;;;;;;9.80;3.40;;;18.60;87.20;;;;;;4949246;29;20047;-48
2023/06/13 00:08:44;;;;;;;8.52;4.18;;;18.50;87.10;;;;;;4948991;29;20107;-52
2023/06/13 00:11:11;;;;;;;7.18;3.55;;;18.60;87.80;;;;;;4948398;29;20055;-54
2023/06/13 00:13:41;;;;;;;6.63;3.92;;;18.50;87.30;;;;;;4949483;29;20103;-57
2023/06/13 00:16:09;;;;;;;6.22;3.42;;;18.50;87.20;;;;;;4949734;29;20050;-54
2023/06/13 00:18:37;;;;;;;5.90;3.58;;;18.50;87.30;;;;;;4948582;29;20451;-49
2023/06/13 00:21:06;;;;;;;6.85;3.65;;;18.40;87.30;;;;;;4948945;29;20150;-56
2023/06/13 00:23:31;;;;;;;9.57;3.75;;;18.30;87.30;;;;;;4949494;29;20073;-50
2023/06/13 00:25:57;;;;;;;5.55;3.53;;;18.30;87.50;;;;;;4948224;29;20122;-52
2023/06/13 00:28:23;;;;;;;6.07;3.35;;;18.20;87.60;;;;;;4948777;29;20039;-57
2023/06/13 00:30:48;;;;;;;11.70;4.10;;;18.30;87.60;;;;;;4948841;29;20046;-53
2023/06/13 00:33:16;;;;;;;7.35;3.80;;;18.20;87.60;;;;;;4947790;29;20047;-57
2023/06/13 00:35:42;;;;;;;7.35;3.90;;;18.30;87.90;;;;;;4948746;29;20142;-51
2023/06/13 00:38:08;;;;;;;5.90;3.92;;;18.20;87.90;;;;;;4948648;29;20043;-57
2023/06/13 00:40:34;;;;;;;8.18;4.00;;;18.20;88.10;;;;;;4932258;29;20040;-53
2023/06/13 00:42:59;;;;;;;8.30;4.32;;;18.20;88.20;;;;;;4948791;29;20881;-47
2023/06/13 00:45:26;;;;;;;6.13;3.90;;;18.10;88.10;;;;;;4948814;29;20043;-53
2023/06/13 00:47:54;;;;;;;8.50;4.15;;;18.00;88.10;;;;;;4947215;29;20047;-55
2023/06/13 00:50:26;;;;;;;7.75;4.07;;;17.90;88.20;;;;;;4948884;29;20471;-54
2023/06/13 00:52:54;;;;;;;11.18;4.35;;;17.90;88.40;;;;;;4948262;29;20047;-52
2023/06/13 00:55:21;;;;;;;11.55;4.82;;;17.80;88.40;;;;;;4947026;28;20043;-57
2023/06/13 00:57:51;;;;;;;8.43;4.82;;;17.80;88.50;;;;;;4948644;29;20075;-55
2023/06/13 01:00:19;;;;;;;7.90;4.97;;;17.80;88.40;;;;;;4948889;29;20098;-53
2023/06/13 01:02:45;;;;;;;8.80;4.90;;;17.70;88.50;;;;;;4947469;29;20135;-57
2023/06/13 01:05:11;;;;;;;7.72;4.63;;;17.70;88.70;;;;;;4931605;29;20438;-54
2023/06/13 01:07:39;;;;;;;7.47;4.47;;;17.70;88.70;;;;;;4948922;29;20525;-51
2023/06/13 01:10:06;;;;;;;8.40;4.40;;;17.70;88.90;;;;;;4947872;29;20058;-54
2023/06/13 01:12:40;;;;;;;7.63;4.32;;;17.70;88.80;;;;;;4946835;29;20063;-55
2023/06/13 01:15:11;;;;;;;7.03;4.03;;;17.70;88.80;;;;;;4948316;29;20083;-57
2023/06/13 01:17:44;;;;;;;6.32;4.63;;;17.70;88.80;;;;;;4949622;28;20137;-54
2023/06/13 01:20:14;;;;;;;10.18;4.78;;;17.60;88.70;;;;;;4967356;28;20047;-54
2023/06/13 01:22:58;;;;;;;11.85;4.60;;;17.60;88.70;;;;;;4967035;28;20613;-56
2023/06/13 01:26:02;;;;;;;10.13;5.30;;;17.60;88.60;;;;;;4967740;28;20122;-53
2023/06/13 01:28:32;;;;;;;7.57;4.28;;;17.60;88.60;;;;;;4967206;28;20109;-50
2023/06/13 01:30:58;;;;;;;7.75;4.50;;;17.50;88.20;;;;;;4967200;28;20050;-48
2023/06/13 01:33:25;;;;;;;8.18;4.88;;;17.40;88.10;;;;;;4966220;28;20051;-54
2023/06/13 01:35:51;;;;;;;9.10;4.70;;;17.40;88.30;;;;;;4967720;28;20165;-57
2023/06/13 01:38:17;;;;;;;6.78;4.70;;;17.40;88.30;;;;;;4967172;28;20058;-47
2023/06/13 01:40:43;;;;;;;9.95;5.07;;;17.40;88.20;;;;;;4950065;28;20039;-55
2023/06/13 01:43:08;;;;;;;8.63;5.05;;;17.40;88.20;;;;;;4966811;28;20177;-56
2023/06/13 01:45:34;;;;;;;8.73;5.00;;;17.30;88.20;;;;;;4965023;28;20057;-56
2023/06/13 01:48:06;;;;;;;8.15;5.43;;;17.30;88.30;;;;;;4966855;28;20047;-56
2023/06/13 01:50:38;;;;;;;9.52;5.20;;;17.30;88.20;;;;;;4966611;28;20689;-55
2023/06/13 01:53:22;;;;;;;10.38;4.85;;;17.20;88.40;;;;;;4986323;28;20054;-48
2023/06/13 01:55:52;;;;;;;7.47;5.47;;;17.20;88.80;;;;;;4985400;28;20047;-56
2023/06/13 01:58:29;;;;;;;9.60;4.78;;;17.20;88.90;;;;;;4986300;28;20046;-52
2023/06/13 02:00:56;;;;;;;9.38;5.28;;;17.10;89.30;;;;;;4986530;28;20046;-54
2023/06/13 02:03:23;;;;;;;8.73;5.20;;;17.10;89.50;;;;;;4984512;28;20050;-53
2023/06/13 02:05:50;;;;;;;6.32;4.70;;;17.10;90.00;;;;;;4985879;28;20453;-57
2023/06/13 02:08:16;;;;;;;7.57;4.60;;;17.10;90.20;;;;;;4985217;28;20088;-54
2023/06/13 02:10:42;;;;;;;7.32;4.53;;;17.10;90.20;;;;;;4985481;28;20046;-54
2023/06/13 02:13:07;;;;;;;11.45;5.45;;;17.10;90.10;;;;;;4985573;28;20576;-57
2023/06/13 02:15:33;;;;;;;7.47;4.90;;;17.10;89.90;;;;;;4986113;28;20097;-55
2023/06/13 02:17:58;;;;;;;10.80;4.88;;;17.00;89.70;;;;;;4984974;28;20042;-47
2023/06/13 02:20:24;;;;;;;7.20;5.10;;;17.00;90.00;;;;;;4985794;28;20133;-51
2023/06/13 02:22:49;;;;;;;10.43;5.38;;;16.90;90.00;;;;;;4985132;28;20042;-53
2023/06/13 02:25:15;;;;;;;9.27;5.03;;;16.90;90.00;;;;;;4986109;28;20548;-57
2023/06/13 02:27:42;;;;;;;9.15;4.75;;;17.00;90.10;;;;;;4985782;28;20035;-56
2023/06/13 02:30:09;;;;;;;8.02;5.00;;;16.90;90.20;;;;;;4985378;28;20093;-51
2023/06/13 02:32:39;;;;;;;6.22;4.63;;;16.90;90.20;;;;;;4984451;28;20108;-53
2023/06/13 02:35:07;;;;;;;9.50;5.10;;;16.90;90.20;;;;;;4985200;28;20589;-56
2023/06/13 02:37:32;;;;;;;8.98;5.15;;;16.90;90.30;;;;;;4985381;28;20129;-56
2023/06/13 02:39:58;;;;;;;14.43;5.15;;;17.00;90.40;;;;;;4985019;28;20113;-53
2023/06/13 02:42:23;;;;;;;6.65;4.88;;;16.80;90.30;;;;;;4968464;28;20050;-54
2023/06/13 02:44:49;;;;;;;7.75;4.82;;;16.80;90.30;;;;;;4984820;28;20129;-53
2023/06/13 02:47:15;;;;;;;13.23;5.38;;;16.80;90.40;;;;;;4967096;28;20043;-57
2023/06/13 02:49:40;;;;;;;9.40;5.25;;;16.70;90.40;;;;;;4985228;28;20462;-48
2023/06/13 02:52:07;;;;;;;9.00;5.10;;;16.70;90.40;;;;;;4984720;28;20038;-53
2023/06/13 02:54:32;;;;;;;9.25;4.95;;;16.70;90.40;;;;;;4985972;28;20043;-51
2023/06/13 02:56:58;;;;;;;10.98;5.20;;;16.70;90.60;;;;;;4985698;28;20038;-56
2023/06/13 02:59:26;;;;;;;9.07;4.88;;;16.60;90.70;;;;;;4984973;28;20053;-56
2023/06/13 03:01:51;;;;;;;6.75;4.78;;;16.60;90.90;;;;;;4984115;28;20424;-53
2023/06/13 03:04:18;;;;;;;6.80;5.10;;;16.50;90.90;;;;;;4984378;28;20128;-54
2023/06/13 03:06:44;;;;;;;8.45;4.90;;;16.50;91.00;;;;;;4984265;28;20132;-55
2023/06/13 03:09:11;;;;;;;8.45;5.25;;;16.40;91.00;;;;;;4984162;28;20043;-57
2023/06/13 03:11:36;;;;;;;11.52;5.30;;;16.60;91.10;;;;;;4984815;28;20054;-54
2023/06/13 03:14:02;;;;;;;8.25;5.15;;;16.40;91.10;;;;;;4984791;28;20520;-56
2023/06/13 03:16:28;;;;;;;9.13;5.05;;;16.40;91.00;;;;;;4984658;28;20046;-57
2023/06/13 03:18:54;;;;;;;7.47;5.00;;;16.40;91.10;;;;;;4985043;28;20081;-55
2023/06/13 03:21:20;;;;;;;9.70;5.07;;;16.40;91.10;;;;;;4988897;28;20112;-55
2023/06/13 03:23:46;;;;;;;7.53;5.20;;;16.40;91.10;;;;;;4988860;28;20046;-52
2023/06/13 03:26:12;;;;;;;8.48;5.28;;;16.40;91.20;;;;;;4988618;28;20046;-57
2023/06/13 03:28:37;;;;;;;9.00;5.00;;;16.30;91.10;;;;;;4989055;28;20038;-54
2023/06/13 03:31:04;;;;;;;8.65;5.20;;;16.30;91.10;;;;;;4989062;28;20104;-57
2023/06/13 03:33:29;;;;;;;9.10;5.13;;;16.20;91.10;;;;;;4987816;28;20046;-57
2023/06/13 03:35:55;;;;;;;7.10;5.03;;;16.10;91.20;;;;;;4971431;28;20489;-53
2023/06/13 03:38:21;;;;;;;8.63;5.03;;;16.10;91.30;;;;;;4988782;28;20157;-56
2023/06/13 03:40:47;;;;;;;9.93;5.05;;;16.10;91.40;;;;;;4989280;28;20420;-58
2023/06/13 03:43:12;;;;;;;7.18;4.57;;;16.10;91.30;;;;;;4988718;28;20583;-57
2023/06/13 03:45:38;;;;;;;8.55;4.57;;;16.20;91.30;;;;;;4988783;28;20120;-55
2023/06/13 03:48:04;;;;;;;11.25;5.18;;;16.20;91.50;;;;;;4987435;28;20034;-54
2023/06/13 03:50:30;;;;;;;8.65;5.03;;;16.10;91.50;;;;;;4987982;28;20050;-54
2023/06/13 03:52:55;;;;;;;8.82;5.22;;;16.10;91.40;;;;;;4988702;28;20073;-55
2023/06/13 03:55:23;;;;;;;6.93;5.30;;;16.20;91.40;;;;;;4988430;28;20085;-50
2023/06/13 03:57:49;;;;;;;8.18;5.43;;;16.10;91.30;;;;;;4988293;28;20096;-52
2023/06/13 04:00:15;;;;;;;7.03;5.18;;;16.10;91.10;;;;;;4970165;28;20050;-57
2023/06/13 04:02:41;;;;;;;9.15;4.60;;;16.10;91.10;;;;;;4987837;28;20051;-56
2023/06/13 04:05:08;;;;;;;8.85;5.00;;;16.10;91.00;;;;;;4988361;28;20065;-57
2023/06/13 04:07:35;;;;;;;6.15;4.80;;;16.20;90.90;;;;;;4970216;28;20050;-48
2023/06/13 04:10:02;;;;;;;6.53;5.43;;;16.20;91.00;;;;;;4989108;28;20429;-56
2023/06/13 04:12:28;;;;;;;8.48;5.00;;;16.30;91.00;;;;;;4988453;28;20413;-57
2023/06/13 04:14:54;;;;;;;8.43;4.78;;;16.50;90.80;;;;;;4987528;28;20058;-49
2023/06/13 04:17:20;;;;;;;6.60;4.85;;;16.60;90.60;;;;;;4987120;28;20049;-54
2023/06/13 04:19:48;;;;;;;7.32;4.57;;;16.60;90.50;;;;;;4988153;28;20073;-57
2023/06/13 04:22:16;;;;;;;8.68;5.13;;;16.40;90.80;;;;;;4987591;28;20424;-53
2023/06/13 04:24:42;;;;;;;7.68;4.40;;;16.30;90.60;;;;;;4987586;28;20058;-52
2023/06/13 04:27:08;;;;;;;8.90;4.43;;;16.30;90.80;;;;;;4988079;28;20035;-53
2023/06/13 04:29:34;;;;;;;10.88;4.80;;;16.20;90.80;;;;;;4988029;28;20076;-53
2023/06/13 04:32:03;;;;;;;12.45;4.80;;;16.20;90.90;;;;;;4986058;28;20046;-53
2023/06/13 04:34:29;;;;;;;7.47;4.70;;;16.10;90.80;;;;;;4970451;28;20054;-51
2023/06/13 04:36:58;;;;;;;6.60;4.78;;;16.10;90.70;;;;;;4987334;28;20052;-57
2023/06/13 04:39:26;;;;;;;6.72;4.63;;;16.00;90.70;;;;;;4986859;28;20078;-56
2023/06/13 04:41:55;;;;;;;8.55;4.88;;;16.00;90.90;;;;;;4987176;28;20047;-51
2023/06/13 04:44:25;;;;;;;6.80;4.43;;;16.00;90.50;;;;;;4987456;28;20054;-55
2023/06/13 04:46:51;;;;;;;9.85;4.20;;;16.00;90.50;;;;;;4985961;28;20477;-47
2023/06/13 04:49:17;;;;;;;11.57;7.07;;;16.10;90.60;;;;;;4987280;28;20133;-55
2023/06/13 04:51:42;;;;;;;9.65;4.10;;;16.10;90.40;;;;;;4987338;28;20153;-53
2023/06/13 04:54:09;;;;;;;8.10;4.55;;;16.50;90.10;;;;;;4987246;28;20034;-49
2023/06/13 04:56:37;;;;;;;6.03;4.35;;;16.90;89.50;;;;;;4969831;28;20050;-50
2023/06/13 04:59:03;;;;;;;5.78;4.07;;;17.30;88.80;;;;;;4987366;28;20409;-55
2023/06/13 05:01:32;;;;;;;6.80;4.28;;;17.60;88.40;;;;;;4986309;28;20038;-53
2023/06/13 05:03:58;;;;;;;8.63;4.00;;;17.90;87.60;;;;;;4969453;28;20054;-55
2023/06/13 05:06:24;;;;;;;5.38;3.97;;;18.10;87.30;;;;;;4969570;28;20046;-54
2023/06/13 05:08:52;;;;;;;7.32;4.05;;;18.20;86.50;;;;;;4986764;28;20116;-57
2023/06/13 05:11:17;;;;;;;8.40;3.78;;;18.20;86.40;;;;;;4986290;28;20491;-55
2023/06/13 05:13:43;;;;;;;5.75;3.55;;;18.30;86.40;;;;;;4986696;28;20134;-54
2023/06/13 05:16:09;;;;;;;7.75;3.88;;;18.30;86.00;;;;;;4986635;28;20050;-54
2023/06/13 05:18:35;;;;;;;5.65;3.50;;;18.50;85.80;;;;;;4986446;28;20075;-51
2023/06/13 05:21:01;;;;;;;6.43;3.90;;;18.60;85.80;;;;;;4986621;28;20050;-57
2023/06/13 05:23:28;;;;;;;5.38;3.85;;;18.80;85.40;;;;;;4986883;28;20052;-52
2023/06/13 05:25:53;;;;;;;6.13;3.80;;;18.90;85.00;;;;;;4987527;28;20080;-54
2023/06/13 05:28:19;;;;;;;9.95;3.47;;;19.10;84.60;;;;;;4986088;28;20082;-55
2023/06/13 05:30:48;;;;;;;6.13;3.70;;;19.20;83.60;;;;;;4986834;28;20043;-57
2023/06/13 05:33:14;;;;;;;7.13;3.65;;;19.50;83.50;;;;;;4985803;28;20042;-53
2023/06/13 05:35:40;;;;;;;5.97;3.70;;;19.80;83.00;;;;;;4986146;28;20129;-50
2023/06/13 05:38:09;;;;;;;6.65;3.55;;;20.00;82.00;;;;;;4986366;28;20038;-54
2023/06/13 05:40:36;;;;;;;7.72;3.67;;;20.30;81.90;;;;;;4986853;28;20089;-58
2023/06/13 05:43:02;;;;;;;6.45;3.40;;;20.70;81.60;;;;;;4986287;28;20053;-53
2023/06/13 05:45:27;;;;;;;7.53;3.72;;;21.10;80.90;;;;;;4986115;28;20379;-51
2023/06/13 05:47:53;;;;;;;5.65;3.58;;;21.70;80.20;;;;;;4985753;28;20050;-56
2023/06/13 05:50:18;;;;;;;6.80;3.63;;;22.00;79.70;;;;;;4969296;28;20054;-57
2023/06/13 05:52:44;;;;;;;8.27;3.90;;;22.30;79.00;;;;;;4986016;28;20092;-57
2023/06/13 05:55:10;;;;;;;7.30;3.30;;;22.50;78.70;;;;;;4985764;28;20038;-51
2023/06/13 05:57:43;;;;;;;7.63;3.67;;;22.80;78.60;;;;;;4986537;28;20101;-52
2023/06/13 06:00:14;;;;;;;8.85;3.58;;;23.00;78.60;;;;;;4985343;28;20489;-52
2023/06/13 06:02:43;;;;;;;6.03;3.63;;;23.10;77.50;;;;;;4985850;28;20051;-48
2023/06/13 06:05:11;;;;;;;4.97;3.20;;;23.00;76.90;;;;;;4986322;28;20383;-50
2023/06/13 06:07:37;;;;;;;6.28;3.33;;;22.90;76.60;;;;;;4986117;28;20051;-51
2023/06/13 06:10:03;;;;;;;5.20;2.97;;;23.10;76.70;;;;;;4985469;28;20586;-57
2023/06/13 06:12:29;;;;;;;4.57;3.45;;;23.20;75.80;;;;;;4985342;28;20054;-55
2023/06/13 06:14:55;;;;;;;4.72;3.22;;;23.20;76.20;;;;;;4985161;28;20054;-51
2023/06/13 06:17:20;;;;;;;8.63;3.15;;;23.40;75.80;;;;;;4984018;28;20046;-52
2023/06/13 06:19:47;;;;;;;4.68;2.90;;;23.70;75.50;;;;;;4985239;28;20113;-56
2023/06/13 06:22:13;;;;;;;5.68;3.25;;;24.00;75.20;;;;;;4985238;28;20045;-55
2023/06/13 06:24:39;;;;;;;5.05;3.10;;;24.10;75.10;;;;;;4984180;28;20042;-57
2023/06/13 06:27:06;;;;;;;11.55;3.70;;;24.20;75.00;;;;;;4967385;28;20038;-51
2023/06/13 06:29:31;;;;;;;9.93;3.33;;;24.20;74.70;;;;;;4985099;28;20058;-57
2023/06/13 06:31:57;;;;;;;5.10;3.22;;;24.20;74.80;;;;;;4966083;28;20039;-56
2023/06/13 06:34:23;;;;;;;4.55;2.70;;;24.20;74.50;;;;;;4985332;28;20052;-48
2023/06/13 06:36:48;;;;;;;7.05;2.88;;;24.20;74.10;;;;;;4985524;28;20070;-54
2023/06/13 06:39:15;;;;;;;7.57;3.10;;;24.10;73.80;;;;;;4985390;28;20105;-51
2023/06/13 06:41:41;;;;;;;7.40;3.13;;;24.10;74.40;;;;;;4985076;28;20140;-56
2023/06/13 06:44:08;;;;;;;5.53;3.10;;;24.20;74.20;;;;;;4986005;28;20053;-57
2023/06/13 06:46:33;;;;;;;4.90;3.08;;;24.40;74.10;;;;;;4984295;28;20532;-54
2023/06/13 06:48:59;;;;;;;6.93;2.97;;;24.40;73.90;;;;;;4984325;28;20058;-52
2023/06/13 06:51:24;;;;;;;4.32;2.80;;;24.60;74.00;;;;;;4985454;28;20042;-54
2023/06/13 06:53:50;;;;;;;5.80;2.85;;;24.70;73.70;;;;;;4971152;28;20043;-55
2023/06/13 06:56:17;;;;;;;5.45;2.33;;;24.80;73.90;;;;;;4965563;28;20045;-56
2023/06/13 06:58:42;;;;;;;5.35;2.90;;;24.80;73.80;;;;;;4965105;28;20103;-49
2023/06/13 07:01:08;;;;;;;4.47;2.70;;;25.00;73.80;;;;;;4957301;28;20050;-54
2023/06/13 07:03:35;;;;;;;8.40;2.63;;;25.30;74.00;;;;;;4970589;28;20105;-55
2023/06/13 07:06:01;;;;;;;10.65;2.95;;;25.30;73.50;;;;;;4973543;28;20042;-56
2023/06/13 07:08:28;;;;;;;4.18;2.60;;;25.20;72.90;;;;;;4984839;28;20057;-56
2023/06/13 07:10:54;;;;;;;6.15;2.72;;;25.20;73.20;;;;;;4984998;28;20042;-53
2023/06/13 07:13:19;;;;;;;5.07;2.60;;;25.20;73.50;;;;;;4985174;28;20073;-57
2023/06/13 07:15:45;;;;;;;4.78;2.72;;;25.40;73.30;;;;;;4984677;28;20057;-56
2023/06/13 07:18:10;;;;;;;6.82;2.70;;;25.50;73.30;;;;;;4985349;28;20057;-55
2023/06/13 07:20:36;;;;;;;6.40;2.78;;;25.60;73.40;;;;;;4985170;28;20146;-52
2023/06/13 07:23:02;;;;;;;5.45;2.45;;;25.70;73.50;;;;;;4983832;28;20048;-52
2023/06/13 07:25:28;;;;;;;5.60;2.60;;;25.60;72.60;;;;;;4984461;28;20089;-56
2023/06/13 07:27:54;;;;;;;4.40;2.70;;;25.60;72.30;;;;;;4985149;28;20443;-56
2023/06/13 07:30:19;;;;;;;3.75;2.67;;;25.50;71.50;;;;;;4984495;28;20117;-56
2023/06/13 07:32:45;;;;;;;3.95;2.47;;;25.40;71.60;;;;;;4982965;28;20045;-53
2023/06/13 07:35:14;;;;;;;4.13;2.75;;;25.30;70.60;;;;;;4984545;28;20371;-49
2023/06/13 07:37:40;;;;;;;5.93;2.40;;;25.40;71.80;;;;;;4984191;28;20418;-55
2023/06/13 07:40:08;;;;;;;3.58;2.70;;;25.30;71.60;;;;;;4983830;28;20351;-47
2023/06/13 07:42:33;;;;;;;3.60;2.55;;;25.20;72.10;;;;;;4984268;28;20053;-50
2023/06/13 07:44:59;;;;;;;3.63;2.30;;;25.30;72.50;;;;;;4984367;28;20050;-56
2023/06/13 07:47:25;;;;;;;6.30;2.47;;;25.20;71.80;;;;;;4983502;28;20490;-56
2023/06/13 07:49:50;;;;;;;6.47;2.70;;;25.30;71.90;;;;;;4983853;28;20050;-56
2023/06/13 07:52:16;;;;;;;6.00;2.60;;;25.40;72.20;;;;;;4967135;28;20042;-47
2023/06/13 07:54:42;;;;;;;5.90;2.85;;;25.60;72.10;;;;;;4984505;28;20046;-51
2023/06/13 07:57:07;;;;;;;5.30;2.60;;;25.50;71.80;;;;;;4983521;28;20038;-57
2023/06/13 07:59:33;;;;;;;6.93;2.63;;;25.50;72.10;;;;;;4977303;28;20163;-54
2023/06/13 08:01:58;;;;;;;5.35;2.72;;;25.50;72.20;;;;;;4964878;28;20070;-56
2023/06/13 08:04:25;;;;;;;5.05;2.70;;;25.50;71.70;;;;;;4964339;28;20051;-52
2023/06/13 08:06:50;;;;;;;4.78;2.58;;;25.40;71.90;;;;;;4968399;28;20177;-51
2023/06/13 08:09:17;;;;;;;5.03;3.28;;;25.40;72.30;;;;;;4968104;28;20057;-48
2023/06/13 08:11:43;;;;;;;5.78;2.92;;;25.40;71.80;;;;;;4951249;28;20082;-56
2023/06/13 08:14:12;;;;;;;3.58;2.80;;;25.50;71.80;;;;;;4967643;28;20046;-55
2023/06/13 08:16:39;;;;;;;4.00;2.60;;;25.60;72.00;;;;;;4967669;28;20034;-53
2023/06/13 08:19:04;;;;;;;4.75;2.70;;;25.50;72.70;;;;;;4966855;28;20046;-55
2023/06/13 08:21:31;;;;;;;5.75;2.85;;;25.50;72.20;;;;;;4967082;28;20525;-54
2023/06/13 08:23:59;;;;;;;4.80;2.85;;;25.60;72.70;;;;;;4963193;28;20426;-54
2023/06/13 08:26:25;;;;;;;5.32;3.20;;;25.70;72.90;;;;;;4960537;28;20049;-57
2023/06/13 08:28:51;;;;;;;7.55;2.90;;;25.70;72.70;;;;;;4960006;28;20046;-56
2023/06/13 08:31:23;;;;;;;4.20;3.03;;;25.90;72.60;;;;;;4985043;28;20054;-57
2023/06/13 08:33:52;;;;;;;5.50;2.63;;;26.00;72.00;;;;;;4973610;28;20043;-56
2023/06/13 08:36:18;;;;;;;6.28;2.88;;;26.10;72.10;;;;;;4972860;28;20606;-49
2023/06/13 08:38:43;;;;;;;3.88;2.80;;;26.10;71.90;;;;;;4975261;28;20038;-52
2023/06/13 08:41:10;;;;;;;3.92;2.80;;;26.20;71.60;;;;;;4974164;28;20059;-53
2023/06/13 08:43:38;;;;;;;6.15;3.13;;;26.30;72.40;;;;;;4979191;28;20625;-55
2023/06/13 08:46:04;;;;;;;4.28;2.90;;;26.50;71.90;;;;;;4983827;28;20158;-57
2023/06/13 08:48:32;;;;;;;5.20;2.80;;;26.60;72.00;;;;;;4984951;28;20069;-54
2023/06/13 08:51:00;;;;;;;8.90;3.10;;;26.70;71.60;;;;;;4984989;28;20042;-56
2023/06/13 08:53:29;;;;;;;4.90;2.80;;;26.80;71.90;;;;;;4984555;28;20057;-56
2023/06/13 08:55:56;;;;;;;4.13;2.70;;;27.00;72.10;;;;;;4985022;28;20095;-51
2023/06/13 08:58:27;;;;;;;4.65;2.60;;;27.00;71.90;;;;;;4984909;28;20417;-56
2023/06/13 09:00:54;;;;;;;7.55;2.90;;;27.10;71.90;;;;;;4986150;28;20045;-53
2023/06/13 09:03:20;;;;;;;8.55;3.08;;;27.20;72.40;;;;;;4987613;28;20474;-51
2023/06/13 09:05:47;;;;;;;6.50;3.10;;;27.30;72.30;;;;;;4970415;28;20132;-58
2023/06/13 09:08:14;;;;;;;5.32;2.88;;;27.50;72.10;;;;;;4985158;28;20297;-57
2023/06/13 09:10:41;;;;;;;4.85;2.83;;;27.50;71.30;;;;;;4982249;28;20467;-56
2023/06/13 09:13:07;;;;;;;5.10;2.75;;;27.50;71.00;;;;;;4951045;28;20069;-55
2023/06/13 09:15:35;;;;;;;4.40;3.08;;;27.50;70.80;;;;;;4961734;28;20073;-54
2023/06/13 09:18:01;;;;;;;7.07;3.15;;;27.30;70.40;;;;;;4961322;28;20536;-58
2023/06/13 09:20:28;;;;;;;7.88;3.40;;;27.30;71.20;;;;;;4960115;28;20321;-54
2023/06/13 09:22:56;;;;;;;5.80;3.05;;;27.20;71.00;;;;;;4950868;28;20133;-57
2023/06/13 09:25:21;;;;;;;5.35;2.80;;;27.30;71.30;;;;;;4954493;28;20046;-58
2023/06/13 09:27:47;;;;;;;7.93;2.83;;;27.50;71.90;;;;;;4965746;28;20050;-49
2023/06/13 09:30:16;;;;;;;4.57;3.00;;;27.80;72.20;;;;;;4947840;28;20051;-55
2023/06/13 09:32:53;;;;;;;3.78;2.78;;;28.00;71.80;;;;;;4946373;28;20039;-58
2023/06/13 09:35:19;;;;;;;6.10;3.33;;;28.10;70.40;;;;;;4948024;28;20061;-50
2023/06/13 09:37:45;;;;;;;4.57;3.20;;;28.10;70.90;;;;;;4947709;28;20043;-56
2023/06/13 09:40:12;;;;;;;5.75;3.10;;;28.30;71.40;;;;;;4964181;28;20144;-55
2023/06/13 09:42:38;;;;;;;5.93;2.80;;;28.30;70.80;;;;;;4964765;28;20046;-54
2023/06/13 09:45:08;;;;;;;8.18;3.20;;;28.30;71.10;;;;;;4964862;28;20043;-55
2023/06/13 09:47:34;;;;;;;6.57;3.22;;;28.30;71.50;;;;;;4961102;28;20042;-57
2023/06/13 09:50:01;;;;;;;5.75;2.53;;;28.20;71.00;;;;;;4955117;28;20102;-53
2023/06/13 09:52:28;;;;;;;9.27;3.47;;;28.30;72.60;;;;;;4944301;28;20038;-56
2023/06/13 09:54:54;;;;;;;5.18;3.20;;;28.40;71.80;;;;;;4958491;28;20078;-54
2023/06/13 09:57:21;;;;;;;4.93;2.83;;;28.50;72.20;;;;;;4963936;28;20090;-56
2023/06/13 09:59:48;;;;;;;5.50;2.80;;;28.60;73.10;;;;;;4963723;28;20043;-52
2023/06/13 10:02:15;;;;;;;4.28;2.75;;;28.70;72.30;;;;;;4963802;28;20157;-57
2023/06/13 10:04:41;;;;;;;5.95;2.75;;;28.70;71.80;;;;;;4963977;28;20049;-49
2023/06/13 10:07:07;;;;;;;4.85;2.55;;;28.80;73.60;;;;;;4964627;28;20449;-57
2023/06/13 10:09:32;;;;;;;9.57;4.30;;;28.80;73.60;;;;;;4964310;28;20043;-54
2023/06/13 10:12:00;;;;;;;9.77;3.30;;;28.90;74.10;;;;;;4950569;28;20051;-56
2023/06/13 10:14:27;;;;;;;4.28;2.63;;;28.90;74.30;;;;;;4929203;28;20051;-52
2023/06/13 10:17:05;;;;;;;6.18;2.80;;;29.00;74.40;;;;;;4956808;28;20125;-57
2023/06/13 10:19:36;;;;;;;3.72;2.67;;;29.00;75.00;;;;;;4958966;28;20125;-56
2023/06/13 10:22:03;;;;;;;5.72;3.38;;;28.90;73.60;;;;;;4934986;28;20082;-57
2023/06/13 10:24:29;;;;;;;4.57;2.70;;;28.90;73.60;;;;;;4952337;28;20050;-56
2023/06/13 10:26:57;;;;;;;5.05;2.97;;;29.00;73.80;;;;;;4955624;28;20105;-57
2023/06/13 10:29:57;;;;;;;6.70;2.90;;;29.10;73.40;;;;;;4953755;28;20467;-58
2023/06/13 10:32:35;;;;;;;8.27;2.88;;;29.20;72.80;;;;;;4956057;28;20039;-55
2023/06/13 10:35:38;;;;;;;6.75;2.75;;;29.30;73.00;;;;;;4956503;28;20053;-58
2023/06/13 10:38:38;;;;;;;8.32;3.17;;;29.30;72.20;;;;;;4956382;28;20039;-58
2023/06/13 10:41:37;;;;;;;10.13;2.92;;;29.30;71.00;;;;;;4956538;28;20077;-55
2023/06/13 10:44:18;;;;;;;6.47;2.80;;;29.30;72.30;;;;;;4956152;28;20043;-57
2023/06/13 10:46:44;;;;;;;3.55;2.80;;;29.40;71.10;;;;;;4954158;28;20284;-63
2023/06/13 10:49:16;;;;;;;4.75;2.70;;;29.30;72.70;;;;;;4933519;29;20085;-55
2023/06/13 10:51:45;;;;;;;4.10;2.67;;;29.30;72.90;;;;;;4956077;28;20039;-56
2023/06/13 10:54:13;;;;;;;4.35;2.70;;;29.40;73.10;;;;;;4956203;28;20046;-58
2023/06/13 10:56:42;;;;;;;5.57;2.78;;;29.50;72.00;;;;;;4955479;28;20051;-59
2023/06/13 10:59:09;;;;;;;4.80;2.80;;;29.40;72.80;;;;;;4941204;28;20122;-57
2023/06/13 11:01:36;;;;;;;4.72;2.80;;;29.50;73.30;;;;;;4955078;28;20047;-57
2023/06/13 11:04:12;;;;;;;6.40;2.55;;;29.60;72.10;;;;;;4954795;28;20128;-56
2023/06/13 11:06:38;;;;;;;7.65;2.60;;;29.60;71.10;;;;;;4952489;28;20043;-57
2023/06/13 11:09:24;;;;;;;5.63;2.80;;;29.70;71.40;;;;;;4955888;28;20038;-58
2023/06/13 11:11:58;;;;;;;3.75;2.25;;;29.70;69.80;;;;;;4955090;28;20491;-59
2023/06/13 11:14:25;;;;;;;5.47;2.55;;;29.70;70.40;;;;;;4965980;28;20482;-58
2023/06/13 11:16:51;;;;;;;4.03;2.65;;;29.60;71.70;;;;;;4947412;28;20508;-58
2023/06/13 11:19:21;;;;;;;6.05;2.58;;;29.60;71.40;;;;;;4966230;28;20125;-58
2023/06/13 11:22:06;;;;;;;5.10;2.58;;;29.70;70.90;;;;;;4963987;28;20630;-55
2023/06/13 11:24:34;;;;;;;5.57;2.78;;;29.70;70.20;;;;;;4959922;28;20767;-56
2023/06/13 11:27:01;;;;;;;4.70;2.38;;;29.50;69.80;;;;;;4961202;28;20084;-59
2023/06/13 11:29:32;;;;;;;3.33;2.25;;;29.20;69.40;;;;;;4965092;28;20053;-57
2023/06/13 11:32:01;;;;;;;3.65;2.45;;;29.20;70.80;;;;;;4945931;28;20179;-55
2023/06/13 11:34:31;;;;;;;5.22;2.60;;;29.30;69.70;;;;;;4963896;28;20074;-60
2023/06/13 11:37:03;;;;;;;6.75;2.70;;;29.40;70.40;;;;;;4961991;28;20125;-59
2023/06/13 11:39:46;;;;;;;4.35;2.70;;;29.60;69.10;;;;;;4961156;28;20054;-58
2023/06/13 11:42:12;;;;;;;6.68;2.53;;;29.80;68.40;;;;;;4965563;28;20070;-53
2023/06/13 11:44:38;;;;;;;4.68;2.70;;;29.90;68.50;;;;;;4966756;28;20080;-59
2023/06/13 11:47:04;;;;;;;3.85;2.40;;;29.90;69.00;;;;;;4966421;28;20134;-59
2023/06/13 11:49:30;;;;;;;5.75;2.40;;;30.00;69.20;;;;;;4966315;28;20054;-59
2023/06/13 11:51:55;;;;;;;4.85;2.50;;;29.90;69.20;;;;;;4966599;28;20053;-57
2023/06/13 11:54:31;;;;;;;6.68;2.50;;;29.80;69.00;;;;;;4966691;28;20049;-54
2023/06/13 11:56:56;;;;;;;9.57;2.47;;;29.60;66.90;;;;;;4966834;28;20054;-53
2023/06/13 11:59:24;;;;;;;3.80;2.72;;;29.40;68.30;;;;;;4966315;28;20389;-59
2023/06/13 12:01:52;;;;;;;5.63;2.40;;;29.40;69.00;;;;;;4965739;28;20405;-56
2023/06/13 12:04:18;;;;;;;4.90;2.55;;;29.30;68.70;;;;;;4966676;28;20053;-59
2023/06/13 12:06:44;;;;;;;5.22;2.50;;;29.10;68.10;;;;;;4965535;28;20411;-55
2023/06/13 12:09:10;;;;;;;3.90;2.47;;;29.00;67.80;;;;;;4966523;28;20047;-59
2023/06/13 12:11:36;;;;;;;10.05;2.60;;;29.10;68.70;;;;;;4969286;28;20146;-55
2023/06/13 12:14:02;;;;;;;5.30;2.63;;;29.20;69.50;;;;;;4985614;28;20076;-53
2023/06/13 12:16:31;;;;;;;3.58;2.20;;;29.30;69.30;;;;;;4985193;28;20048;-56
2023/06/13 12:18:59;;;;;;;8.70;2.88;;;29.40;68.80;;;;;;4985956;28;20509;-57
2023/06/13 12:21:29;;;;;;;5.53;2.63;;;29.40;68.90;;;;;;4985710;28;20433;-54
2023/06/13 12:24:00;;;;;;;4.22;2.60;;;29.40;68.70;;;;;;4985649;28;20050;-53
2023/06/13 12:26:36;;;;;;;6.88;2.78;;;29.50;69.00;;;;;;4986033;28;20082;-59
2023/06/13 12:29:11;;;;;;;8.13;2.53;;;29.60;68.80;;;;;;4977459;28;20113;-53
2023/06/13 12:31:40;;;;;;;5.53;2.80;;;29.70;67.80;;;;;;4985194;28;20050;-54
2023/06/13 12:34:14;;;;;;;4.60;2.45;;;29.70;68.20;;;;;;4985929;28;20046;-56
2023/06/13 12:36:44;;;;;;;4.97;2.60;;;29.60;68.50;;;;;;4985623;28;20444;-55
2023/06/13 12:39:14;;;;;;;8.23;2.55;;;29.50;67.80;;;;;;4985686;28;20035;-59
2023/06/13 12:41:48;;;;;;;9.00;2.60;;;29.60;67.80;;;;;;4984688;28;20046;-55
2023/06/13 12:44:14;;;;;;;4.38;2.50;;;29.60;68.20;;;;;;4985196;28;20368;-54
2023/06/13 12:46:40;;;;;;;6.45;2.63;;;29.40;68.80;;;;;;4984794;28;20053;-59
2023/06/13 12:49:10;;;;;;;4.30;2.85;;;29.30;68.60;;;;;;4967222;28;20042;-54